Airfield :
LOGIN :

Register | Disclaimer

   EN    FR    IT 

 










Legend :    VFR   Marginal VFR   IFR   Intensive IFR   Very Intensive IFR
Visi :
Ceiling :
>= 8 km
>= 3000ft
5 to 8 km
1000 to 3000 ft
1500m to 5 km
500 to 1000 ft
800 to 1500m
200 to 500 ft
< 800m
< 200 ft
Symbols :   Thunderstorms  Fog  Heavy snow  Heavy precipitations  Wind > 20 kt
SIGMETs :     Misc.  Thunderstorms  Icing  Turbulence  Mountain Waves  Volcanic Ashes







- Airport Elevation : 1260 ft
- IATA code : LDE
- Download approach charts


LFBT - Tarbes / Ossun

CURRENT METAR :
  • 190300Z AUTO VRB01KT 0400 0350 R20/0450N FG VV/// 04/03 Q1006 TEMPO 0300 FG

EXPIRED METARs :
  • 190230Z AUTO 00000KT 0650 0550 R20/0900D FG VV/// 04/03 Q1006 TEMPO 0300 FG
  • 190200Z AUTO 18006KT 0500 R20/1300U FG VV/// 05/04 Q1006 TEMPO 0300 FG
  • 190130Z AUTO 21004KT 0350 0300 R20/0450N FG VV/// 05/05 Q1007 NOSIG
  • 190100Z AUTO VRB03KT 0400 0350 R20/0450N FG VV/// 05/05 Q1007 TEMPO 0300 FG
  • 190030Z AUTO 02003KT 0300 R20/0400D FG VV/// 05/05 Q1007 NOSIG

TAF TAF LFBT
Valid from the 19 at 00:00 until the 20 at 00:00 UTC


182300Z 1900/1924 VRB02KT 3000 BR BKN002
TEMPO 1900/1908 0300 FG VV///
BECMG 1910/1912 CAVOK
BECMG 1914/1916 BKN020
PROB40
TEMPO 1916/1924 BKN013
No reported NOTAMs for that airfield.
2 SIGMETs reported for the Bordeaux FIR (LFBB) :
 
Severe turbulence
LFBB SIGMET 7 VALID 190000/190400 LFPW
LFBB BORDEAUX FIR/UIR SEV TURB FCST WI N4400 W00145 - N4530 W00145 - N4430 E00200 - N4300 E00145 - N4400 W00145 FL180/350 MOV S 10KT NC=
Severe turbulence
LFBB SIGMET 1 VALID 190300/190700 LFPW
LFBB BORDEAUX FIR/UIR SEV TURB FCST WI N4500 W00145 - N4545 W00145 - N4545 E00130 - N4615 E00300 - N4500 E00245 - N4445 E00145 - N4445 W00115 - N4500 W00145 FL200/270 MOV S 20KT NC=



MET'MAP, your aeronautical weather chart ! - Copyright ORBIFLY December 2007 - Disclaimer

ORBIFLY MET'MAP TEAM :

Programming & Development : Alexandra Zaïnal
Concept & Development : Baudouin d'Aumeries
Co-Development & Prog : Marc-Olivier Méhu
Technical & hardware support : Manuel Goepfert

Contact : metmap@orbifly.com




SOURCES & CREDITS :

   NOAA